sensor_id;sensor_type;location;lat;lon;timestamp;P1;durP1;ratioP1;P2;durP2;ratioP2
22697;SDS011;11516;51.612;7.510;2022-12-18T00:00:40;65.23;;;39.50;;
22697;SDS011;11516;51.612;7.510;2022-12-18T00:03:07;61.00;;;38.58;;
22697;SDS011;11516;51.612;7.510;2022-12-18T00:05:32;59.92;;;39.05;;
22697;SDS011;11516;51.612;7.510;2022-12-18T00:07:58;59.87;;;37.40;;
22697;SDS011;11516;51.612;7.510;2022-12-18T00:10:24;64.63;;;39.47;;
22697;SDS011;11516;51.612;7.510;2022-12-18T00:12:49;58.95;;;37.78;;
22697;SDS011;11516;51.612;7.510;2022-12-18T00:15:15;60.90;;;40.25;;
22697;SDS011;11516;51.612;7.510;2022-12-18T00:17:40;61.10;;;41.97;;
22697;SDS011;11516;51.612;7.510;2022-12-18T00:20:06;64.30;;;43.60;;
22697;SDS011;11516;51.612;7.510;2022-12-18T00:22:32;61.30;;;42.90;;
22697;SDS011;11516;51.612;7.510;2022-12-18T00:24:58;66.40;;;43.13;;
22697;SDS011;11516;51.612;7.510;2022-12-18T00:27:24;61.20;;;40.73;;
22697;SDS011;11516;51.612;7.510;2022-12-18T00:29:49;63.35;;;42.25;;
22697;SDS011;11516;51.612;7.510;2022-12-18T00:32:15;60.13;;;41.05;;
22697;SDS011;11516;51.612;7.510;2022-12-18T00:34:40;62.83;;;40.30;;
22697;SDS011;11516;51.612;7.510;2022-12-18T00:37:06;61.25;;;41.20;;
22697;SDS011;11516;51.612;7.510;2022-12-18T00:39:31;61.17;;;41.00;;
22697;SDS011;11516;51.612;7.510;2022-12-18T00:41:57;60.37;;;39.90;;
22697;SDS011;11516;51.612;7.510;2022-12-18T00:44:41;64.20;;;42.23;;
22697;SDS011;11516;51.612;7.510;2022-12-18T00:47:06;58.37;;;40.67;;
22697;SDS011;11516;51.612;7.510;2022-12-18T00:49:32;59.45;;;39.83;;
22697;SDS011;11516;51.612;7.510;2022-12-18T00:51:57;60.37;;;40.30;;
22697;SDS011;11516;51.612;7.510;2022-12-18T00:54:23;57.73;;;39.40;;
22697;SDS011;11516;51.612;7.510;2022-12-18T00:56:49;62.25;;;40.70;;
22697;SDS011;11516;51.612;7.510;2022-12-18T00:59:14;60.17;;;41.63;;
22697;SDS011;11516;51.612;7.510;2022-12-18T01:01:41;62.10;;;41.67;;
22697;SDS011;11516;51.612;7.510;2022-12-18T01:04:07;61.22;;;40.95;;
22697;SDS011;11516;51.612;7.510;2022-12-18T01:06:33;58.03;;;39.80;;
22697;SDS011;11516;51.612;7.510;2022-12-18T01:08:58;58.97;;;40.50;;
22697;SDS011;11516;51.612;7.510;2022-12-18T01:11:24;57.55;;;38.72;;
22697;SDS011;11516;51.612;7.510;2022-12-18T01:13:51;56.92;;;39.72;;
22697;SDS011;11516;51.612;7.510;2022-12-18T01:16:17;58.10;;;39.97;;
22697;SDS011;11516;51.612;7.510;2022-12-18T01:18:43;55.83;;;38.47;;
22697;SDS011;11516;51.612;7.510;2022-12-18T01:21:10;55.42;;;38.53;;
22697;SDS011;11516;51.612;7.510;2022-12-18T01:23:38;55.92;;;37.88;;
22697;SDS011;11516;51.612;7.510;2022-12-18T01:26:07;56.08;;;38.20;;
22697;SDS011;11516;51.612;7.510;2022-12-18T01:28:35;58.20;;;39.15;;
22697;SDS011;11516;51.612;7.510;2022-12-18T01:31:19;56.90;;;38.20;;
22697;SDS011;11516;51.612;7.510;2022-12-18T01:33:47;56.30;;;38.72;;
22697;SDS011;11516;51.612;7.510;2022-12-18T01:36:14;58.15;;;38.40;;
22697;SDS011;11516;51.612;7.510;2022-12-18T01:38:44;57.00;;;38.72;;
22697;SDS011;11516;51.612;7.510;2022-12-18T01:41:10;55.13;;;38.13;;
22697;SDS011;11516;51.612;7.510;2022-12-18T01:43:51;55.78;;;37.50;;
22697;SDS011;11516;51.612;7.510;2022-12-18T01:46:22;55.85;;;37.55;;
22697;SDS011;11516;51.612;7.510;2022-12-18T01:48:49;53.63;;;37.20;;
22697;SDS011;11516;51.612;7.510;2022-12-18T01:51:19;56.17;;;37.42;;
22697;SDS011;11516;51.612;7.510;2022-12-18T01:53:45;51.25;;;37.05;;
22697;SDS011;11516;51.612;7.510;2022-12-18T01:56:13;54.00;;;36.97;;
22697;SDS011;11516;51.612;7.510;2022-12-18T02:01:06;55.83;;;37.67;;
22697;SDS011;11516;51.612;7.510;2022-12-18T02:03:32;56.70;;;38.67;;
22697;SDS011;11516;51.612;7.510;2022-12-18T02:06:04;53.73;;;37.97;;
22697;SDS011;11516;51.612;7.510;2022-12-18T02:08:44;54.83;;;37.20;;
22697;SDS011;11516;51.612;7.510;2022-12-18T02:11:32;58.65;;;38.95;;
22697;SDS011;11516;51.612;7.510;2022-12-18T02:17:21;54.65;;;36.67;;
22697;SDS011;11516;51.612;7.510;2022-12-18T02:19:57;51.80;;;36.20;;
22697;SDS011;11516;51.612;7.510;2022-12-18T02:22:36;54.08;;;37.03;;
22697;SDS011;11516;51.612;7.510;2022-12-18T02:25:23;55.75;;;37.25;;
22697;SDS011;11516;51.612;7.510;2022-12-18T02:28:06;55.65;;;36.90;;
22697;SDS011;11516;51.612;7.510;2022-12-18T02:30:35;51.53;;;35.37;;
22697;SDS011;11516;51.612;7.510;2022-12-18T02:33:04;54.00;;;36.00;;
22697;SDS011;11516;51.612;7.510;2022-12-18T02:35:33;53.00;;;36.40;;
22697;SDS011;11516;51.612;7.510;2022-12-18T02:38:01;51.88;;;35.50;;
22697;SDS011;11516;51.612;7.510;2022-12-18T02:40:29;52.25;;;35.50;;
22697;SDS011;11516;51.612;7.510;2022-12-18T02:42:55;51.83;;;35.75;;
22697;SDS011;11516;51.612;7.510;2022-12-18T02:45:26;54.50;;;36.50;;
22697;SDS011;11516;51.612;7.510;2022-12-18T02:47:52;52.97;;;35.30;;
22697;SDS011;11516;51.612;7.510;2022-12-18T02:53:20;53.30;;;36.85;;
22697;SDS011;11516;51.612;7.510;2022-12-18T02:58:59;54.00;;;36.10;;
22697;SDS011;11516;51.612;7.510;2022-12-18T03:04:12;50.90;;;35.08;;
22697;SDS011;11516;51.612;7.510;2022-12-18T03:06:47;51.90;;;36.20;;
22697;SDS011;11516;51.612;7.510;2022-12-18T03:09:17;51.80;;;36.60;;
22697;SDS011;11516;51.612;7.510;2022-12-18T03:11:47;54.50;;;35.75;;
22697;SDS011;11516;51.612;7.510;2022-12-18T03:14:40;50.95;;;35.75;;
22697;SDS011;11516;51.612;7.510;2022-12-18T03:17:09;53.33;;;37.17;;
22697;SDS011;11516;51.612;7.510;2022-12-18T03:19:37;53.40;;;36.43;;
22697;SDS011;11516;51.612;7.510;2022-12-18T03:22:04;52.90;;;36.13;;
22697;SDS011;11516;51.612;7.510;2022-12-18T03:24:32;50.63;;;36.72;;
22697;SDS011;11516;51.612;7.510;2022-12-18T03:27:00;51.13;;;36.17;;
22697;SDS011;11516;51.612;7.510;2022-12-18T03:29:33;53.13;;;35.58;;
22697;SDS011;11516;51.612;7.510;2022-12-18T03:32:08;53.78;;;36.08;;
22697;SDS011;11516;51.612;7.510;2022-12-18T03:34:42;52.17;;;36.28;;
22697;SDS011;11516;51.612;7.510;2022-12-18T03:37:11;50.33;;;34.97;;
22697;SDS011;11516;51.612;7.510;2022-12-18T03:39:37;52.53;;;35.00;;
22697;SDS011;11516;51.612;7.510;2022-12-18T03:44:45;54.22;;;35.70;;
22697;SDS011;11516;51.612;7.510;2022-12-18T03:47:15;51.55;;;36.70;;
22697;SDS011;11516;51.612;7.510;2022-12-18T03:52:44;50.65;;;34.75;;
22697;SDS011;11516;51.612;7.510;2022-12-18T03:55:32;50.38;;;35.08;;
22697;SDS011;11516;51.612;7.510;2022-12-18T03:57:59;51.60;;;35.47;;
22697;SDS011;11516;51.612;7.510;2022-12-18T04:00:27;49.45;;;34.40;;
22697;SDS011;11516;51.612;7.510;2022-12-18T04:02:54;52.47;;;36.08;;
22697;SDS011;11516;51.612;7.510;2022-12-18T04:05:22;50.72;;;35.67;;
22697;SDS011;11516;51.612;7.510;2022-12-18T04:07:49;52.03;;;35.55;;
22697;SDS011;11516;51.612;7.510;2022-12-18T04:10:16;48.90;;;34.05;;
22697;SDS011;11516;51.612;7.510;2022-12-18T04:12:43;49.47;;;34.05;;
22697;SDS011;11516;51.612;7.510;2022-12-18T04:15:09;50.20;;;34.72;;
22697;SDS011;11516;51.612;7.510;2022-12-18T04:17:36;49.33;;;34.47;;
22697;SDS011;11516;51.612;7.510;2022-12-18T04:20:03;49.47;;;34.00;;
22697;SDS011;11516;51.612;7.510;2022-12-18T04:22:29;52.53;;;35.15;;
22697;SDS011;11516;51.612;7.510;2022-12-18T04:24:54;48.23;;;34.50;;
22697;SDS011;11516;51.612;7.510;2022-12-18T04:27:20;47.87;;;34.17;;
22697;SDS011;11516;51.612;7.510;2022-12-18T04:29:46;46.63;;;32.30;;
22697;SDS011;11516;51.612;7.510;2022-12-18T04:32:12;47.63;;;33.33;;
22697;SDS011;11516;51.612;7.510;2022-12-18T04:34:37;50.90;;;35.08;;
22697;SDS011;11516;51.612;7.510;2022-12-18T04:37:02;48.37;;;33.23;;
22697;SDS011;11516;51.612;7.510;2022-12-18T04:39:28;50.23;;;35.10;;
22697;SDS011;11516;51.612;7.510;2022-12-18T04:41:54;47.85;;;33.58;;
22697;SDS011;11516;51.612;7.510;2022-12-18T04:44:20;48.55;;;33.15;;
22697;SDS011;11516;51.612;7.510;2022-12-18T04:46:45;51.72;;;33.45;;
22697;SDS011;11516;51.612;7.510;2022-12-18T04:49:11;47.87;;;34.00;;
22697;SDS011;11516;51.612;7.510;2022-12-18T04:51:37;46.35;;;33.08;;
22697;SDS011;11516;51.612;7.510;2022-12-18T04:54:02;47.10;;;33.27;;
22697;SDS011;11516;51.612;7.510;2022-12-18T04:56:29;50.73;;;34.03;;
22697;SDS011;11516;51.612;7.510;2022-12-18T04:58:56;48.30;;;32.58;;
22697;SDS011;11516;51.612;7.510;2022-12-18T05:01:21;50.00;;;32.17;;
22697;SDS011;11516;51.612;7.510;2022-12-18T05:03:47;50.60;;;33.47;;
22697;SDS011;11516;51.612;7.510;2022-12-18T05:06:13;46.10;;;32.03;;
22697;SDS011;11516;51.612;7.510;2022-12-18T05:08:38;51.20;;;34.63;;
22697;SDS011;11516;51.612;7.510;2022-12-18T05:11:09;46.45;;;33.00;;
22697;SDS011;11516;51.612;7.510;2022-12-18T05:13:36;46.63;;;32.83;;
22697;SDS011;11516;51.612;7.510;2022-12-18T05:16:03;48.17;;;33.47;;
22697;SDS011;11516;51.612;7.510;2022-12-18T05:18:29;46.80;;;33.03;;
22697;SDS011;11516;51.612;7.510;2022-12-18T05:20:55;45.38;;;31.38;;
22697;SDS011;11516;51.612;7.510;2022-12-18T05:23:21;44.05;;;31.70;;
22697;SDS011;11516;51.612;7.510;2022-12-18T05:25:51;47.55;;;31.42;;
22697;SDS011;11516;51.612;7.510;2022-12-18T05:28:22;44.70;;;31.63;;
22697;SDS011;11516;51.612;7.510;2022-12-18T05:30:52;47.88;;;31.73;;
22697;SDS011;11516;51.612;7.510;2022-12-18T05:33:19;45.35;;;31.63;;
22697;SDS011;11516;51.612;7.510;2022-12-18T05:35:56;47.85;;;32.20;;
22697;SDS011;11516;51.612;7.510;2022-12-18T05:38:24;45.00;;;31.80;;
22697;SDS011;11516;51.612;7.510;2022-12-18T05:40:51;48.78;;;32.60;;
22697;SDS011;11516;51.612;7.510;2022-12-18T05:43:17;46.10;;;31.55;;
22697;SDS011;11516;51.612;7.510;2022-12-18T05:45:44;45.17;;;32.08;;
22697;SDS011;11516;51.612;7.510;2022-12-18T05:48:10;42.90;;;30.58;;
22697;SDS011;11516;51.612;7.510;2022-12-18T05:50:37;43.33;;;29.95;;
22697;SDS011;11516;51.612;7.510;2022-12-18T05:53:05;45.85;;;31.30;;
22697;SDS011;11516;51.612;7.510;2022-12-18T05:55:38;45.20;;;30.58;;
22697;SDS011;11516;51.612;7.510;2022-12-18T05:58:05;43.00;;;30.17;;
22697;SDS011;11516;51.612;7.510;2022-12-18T06:00:32;43.40;;;31.02;;
22697;SDS011;11516;51.612;7.510;2022-12-18T06:02:59;44.40;;;30.25;;
22697;SDS011;11516;51.612;7.510;2022-12-18T06:05:26;43.97;;;30.42;;
22697;SDS011;11516;51.612;7.510;2022-12-18T06:07:52;41.53;;;29.67;;
22697;SDS011;11516;51.612;7.510;2022-12-18T06:10:17;42.67;;;29.85;;
22697;SDS011;11516;51.612;7.510;2022-12-18T06:12:43;43.60;;;31.23;;
22697;SDS011;11516;51.612;7.510;2022-12-18T06:15:08;46.10;;;32.37;;
22697;SDS011;11516;51.612;7.510;2022-12-18T06:17:34;45.83;;;31.77;;
22697;SDS011;11516;51.612;7.510;2022-12-18T06:20:01;44.95;;;30.92;;
22697;SDS011;11516;51.612;7.510;2022-12-18T06:22:28;45.90;;;31.15;;
22697;SDS011;11516;51.612;7.510;2022-12-18T06:24:55;44.85;;;32.35;;
22697;SDS011;11516;51.612;7.510;2022-12-18T06:27:21;47.17;;;31.00;;
22697;SDS011;11516;51.612;7.510;2022-12-18T06:29:46;44.63;;;31.20;;
22697;SDS011;11516;51.612;7.510;2022-12-18T06:32:12;45.03;;;30.27;;
22697;SDS011;11516;51.612;7.510;2022-12-18T06:34:38;43.17;;;29.53;;
22697;SDS011;11516;51.612;7.510;2022-12-18T06:37:03;47.03;;;30.50;;
22697;SDS011;11516;51.612;7.510;2022-12-18T06:39:29;44.47;;;30.47;;
22697;SDS011;11516;51.612;7.510;2022-12-18T06:41:54;40.13;;;28.80;;
22697;SDS011;11516;51.612;7.510;2022-12-18T06:44:20;42.08;;;28.77;;
22697;SDS011;11516;51.612;7.510;2022-12-18T06:46:46;41.22;;;28.23;;
22697;SDS011;11516;51.612;7.510;2022-12-18T06:49:11;37.60;;;26.30;;
22697;SDS011;11516;51.612;7.510;2022-12-18T06:51:37;38.27;;;27.03;;
22697;SDS011;11516;51.612;7.510;2022-12-18T06:54:03;41.57;;;28.27;;
22697;SDS011;11516;51.612;7.510;2022-12-18T06:56:28;42.53;;;29.47;;
22697;SDS011;11516;51.612;7.510;2022-12-18T06:58:54;44.20;;;29.23;;
22697;SDS011;11516;51.612;7.510;2022-12-18T07:01:20;40.75;;;28.05;;
22697;SDS011;11516;51.612;7.510;2022-12-18T07:03:46;43.38;;;28.27;;
22697;SDS011;11516;51.612;7.510;2022-12-18T07:06:15;40.88;;;26.80;;
22697;SDS011;11516;51.612;7.510;2022-12-18T07:08:45;36.70;;;25.50;;
22697;SDS011;11516;51.612;7.510;2022-12-18T07:11:12;39.80;;;26.85;;
22697;SDS011;11516;51.612;7.510;2022-12-18T07:13:38;40.65;;;27.90;;
22697;SDS011;11516;51.612;7.510;2022-12-18T07:16:05;45.90;;;28.83;;
22697;SDS011;11516;51.612;7.510;2022-12-18T07:18:35;37.28;;;25.70;;
22697;SDS011;11516;51.612;7.510;2022-12-18T07:21:07;38.38;;;27.23;;
22697;SDS011;11516;51.612;7.510;2022-12-18T07:23:35;35.63;;;24.15;;
22697;SDS011;11516;51.612;7.510;2022-12-18T07:26:02;37.92;;;24.05;;
22697;SDS011;11516;51.612;7.510;2022-12-18T07:28:29;38.03;;;23.98;;
22697;SDS011;11516;51.612;7.510;2022-12-18T07:30:55;36.60;;;23.88;;
22697;SDS011;11516;51.612;7.510;2022-12-18T07:33:20;33.92;;;23.90;;
22697;SDS011;11516;51.612;7.510;2022-12-18T07:35:46;32.73;;;22.67;;
22697;SDS011;11516;51.612;7.510;2022-12-18T07:38:11;31.90;;;22.40;;
22697;SDS011;11516;51.612;7.510;2022-12-18T07:40:37;31.23;;;21.80;;
22697;SDS011;11516;51.612;7.510;2022-12-18T07:43:02;30.23;;;20.70;;
22697;SDS011;11516;51.612;7.510;2022-12-18T07:45:29;31.03;;;21.50;;
22697;SDS011;11516;51.612;7.510;2022-12-18T07:47:54;29.23;;;20.23;;
22697;SDS011;11516;51.612;7.510;2022-12-18T07:50:20;29.00;;;20.23;;
22697;SDS011;11516;51.612;7.510;2022-12-18T07:52:45;30.30;;;20.33;;
22697;SDS011;11516;51.612;7.510;2022-12-18T07:55:11;27.55;;;19.45;;
22697;SDS011;11516;51.612;7.510;2022-12-18T07:57:37;29.33;;;20.02;;
22697;SDS011;11516;51.612;7.510;2022-12-18T08:00:02;28.47;;;20.33;;
22697;SDS011;11516;51.612;7.510;2022-12-18T08:02:30;28.95;;;19.08;;
22697;SDS011;11516;51.612;7.510;2022-12-18T08:04:56;28.63;;;19.60;;
22697;SDS011;11516;51.612;7.510;2022-12-18T08:07:21;26.40;;;18.73;;
22697;SDS011;11516;51.612;7.510;2022-12-18T08:09:47;28.20;;;19.13;;
22697;SDS011;11516;51.612;7.510;2022-12-18T08:12:12;25.50;;;17.90;;
22697;SDS011;11516;51.612;7.510;2022-12-18T08:14:38;25.58;;;18.05;;
22697;SDS011;11516;51.612;7.510;2022-12-18T08:17:03;27.50;;;19.10;;
22697;SDS011;11516;51.612;7.510;2022-12-18T08:19:29;26.10;;;19.43;;
22697;SDS011;11516;51.612;7.510;2022-12-18T08:21:54;26.48;;;18.70;;
22697;SDS011;11516;51.612;7.510;2022-12-18T08:24:20;27.70;;;19.97;;
22697;SDS011;11516;51.612;7.510;2022-12-18T08:26:45;30.02;;;19.85;;
22697;SDS011;11516;51.612;7.510;2022-12-18T08:29:11;30.02;;;20.60;;
22697;SDS011;11516;51.612;7.510;2022-12-18T08:31:37;28.33;;;20.57;;
22697;SDS011;11516;51.612;7.510;2022-12-18T08:34:02;28.85;;;21.23;;
22697;SDS011;11516;51.612;7.510;2022-12-18T08:36:28;33.63;;;23.40;;
22697;SDS011;11516;51.612;7.510;2022-12-18T08:38:53;36.97;;;25.50;;
22697;SDS011;11516;51.612;7.510;2022-12-18T08:41:19;44.80;;;30.70;;
22697;SDS011;11516;51.612;7.510;2022-12-18T08:43:45;45.80;;;31.70;;
22697;SDS011;11516;51.612;7.510;2022-12-18T08:46:34;43.20;;;30.55;;
22697;SDS011;11516;51.612;7.510;2022-12-18T08:49:02;38.38;;;27.85;;
22697;SDS011;11516;51.612;7.510;2022-12-18T08:51:28;30.63;;;21.63;;
22697;SDS011;11516;51.612;7.510;2022-12-18T08:53:53;27.67;;;20.37;;
22697;SDS011;11516;51.612;7.510;2022-12-18T08:56:19;25.05;;;17.45;;
22697;SDS011;11516;51.612;7.510;2022-12-18T08:58:45;26.27;;;19.17;;
22697;SDS011;11516;51.612;7.510;2022-12-18T09:01:12;27.30;;;19.10;;
22697;SDS011;11516;51.612;7.510;2022-12-18T09:03:38;24.42;;;18.33;;
22697;SDS011;11516;51.612;7.510;2022-12-18T09:06:04;25.40;;;18.00;;
22697;SDS011;11516;51.612;7.510;2022-12-18T09:08:30;23.98;;;17.55;;
22697;SDS011;11516;51.612;7.510;2022-12-18T09:10:56;22.83;;;17.30;;
22697;SDS011;11516;51.612;7.510;2022-12-18T09:13:22;23.08;;;17.90;;
22697;SDS011;11516;51.612;7.510;2022-12-18T09:15:49;25.15;;;17.65;;
22697;SDS011;11516;51.612;7.510;2022-12-18T09:18:19;27.52;;;18.48;;
22697;SDS011;11516;51.612;7.510;2022-12-18T09:20:46;24.15;;;18.55;;
22697;SDS011;11516;51.612;7.510;2022-12-18T09:23:12;26.30;;;18.88;;
22697;SDS011;11516;51.612;7.510;2022-12-18T09:25:38;23.88;;;17.85;;
22697;SDS011;11516;51.612;7.510;2022-12-18T09:28:11;23.73;;;17.70;;
22697;SDS011;11516;51.612;7.510;2022-12-18T09:30:39;22.90;;;17.13;;
22697;SDS011;11516;51.612;7.510;2022-12-18T09:33:05;23.98;;;17.45;;
22697;SDS011;11516;51.612;7.510;2022-12-18T09:35:31;23.75;;;17.25;;
22697;SDS011;11516;51.612;7.510;2022-12-18T09:37:56;22.63;;;16.90;;
22697;SDS011;11516;51.612;7.510;2022-12-18T09:40:23;25.15;;;18.15;;
22697;SDS011;11516;51.612;7.510;2022-12-18T09:42:56;25.77;;;19.60;;
22697;SDS011;11516;51.612;7.510;2022-12-18T09:45:24;24.00;;;17.90;;
22697;SDS011;11516;51.612;7.510;2022-12-18T09:47:51;25.55;;;17.65;;
22697;SDS011;11516;51.612;7.510;2022-12-18T09:50:30;22.40;;;16.02;;
22697;SDS011;11516;51.612;7.510;2022-12-18T09:53:02;22.20;;;15.48;;
22697;SDS011;11516;51.612;7.510;2022-12-18T09:55:37;22.25;;;15.25;;
22697;SDS011;11516;51.612;7.510;2022-12-18T10:00:53;20.05;;;13.35;;
22697;SDS011;11516;51.612;7.510;2022-12-18T10:03:19;20.92;;;14.20;;
22697;SDS011;11516;51.612;7.510;2022-12-18T10:06:22;21.83;;;14.50;;
22697;SDS011;11516;51.612;7.510;2022-12-18T10:08:59;19.65;;;13.38;;
22697;SDS011;11516;51.612;7.510;2022-12-18T10:11:58;17.95;;;12.48;;
22697;SDS011;11516;51.612;7.510;2022-12-18T10:14:44;17.85;;;12.38;;
22697;SDS011;11516;51.612;7.510;2022-12-18T10:22:59;20.65;;;14.43;;
22697;SDS011;11516;51.612;7.510;2022-12-18T10:28:35;20.23;;;14.80;;
22697;SDS011;11516;51.612;7.510;2022-12-18T10:31:02;21.05;;;14.50;;
22697;SDS011;11516;51.612;7.510;2022-12-18T10:33:30;16.45;;;11.93;;
22697;SDS011;11516;51.612;7.510;2022-12-18T10:35:57;17.25;;;12.70;;
22697;SDS011;11516;51.612;7.510;2022-12-18T10:38:27;16.08;;;11.90;;
22697;SDS011;11516;51.612;7.510;2022-12-18T10:43:22;16.83;;;12.23;;
22697;SDS011;11516;51.612;7.510;2022-12-18T10:45:58;17.10;;;13.25;;
22697;SDS011;11516;51.612;7.510;2022-12-18T10:48:26;18.83;;;15.07;;
22697;SDS011;11516;51.612;7.510;2022-12-18T10:50:52;19.95;;;15.00;;
22697;SDS011;11516;51.612;7.510;2022-12-18T10:53:37;16.70;;;12.27;;
22697;SDS011;11516;51.612;7.510;2022-12-18T10:56:04;15.10;;;11.35;;
22697;SDS011;11516;51.612;7.510;2022-12-18T10:58:35;15.05;;;10.98;;
22697;SDS011;11516;51.612;7.510;2022-12-18T11:01:06;15.55;;;11.38;;
22697;SDS011;11516;51.612;7.510;2022-12-18T11:03:44;15.82;;;11.95;;
22697;SDS011;11516;51.612;7.510;2022-12-18T11:06:20;15.98;;;11.02;;
22697;SDS011;11516;51.612;7.510;2022-12-18T11:09:05;15.57;;;10.63;;
22697;SDS011;11516;51.612;7.510;2022-12-18T11:11:51;14.40;;;10.67;;
22697;SDS011;11516;51.612;7.510;2022-12-18T11:16:55;14.35;;;11.02;;
22697;SDS011;11516;51.612;7.510;2022-12-18T11:19:36;13.02;;;10.15;;
22697;SDS011;11516;51.612;7.510;2022-12-18T11:22:16;15.05;;;10.85;;
22697;SDS011;11516;51.612;7.510;2022-12-18T11:27:25;14.77;;;10.13;;
22697;SDS011;11516;51.612;7.510;2022-12-18T11:30:06;15.02;;;10.57;;
22697;SDS011;11516;51.612;7.510;2022-12-18T11:32:47;16.50;;;11.37;;
22697;SDS011;11516;51.612;7.510;2022-12-18T11:35:55;15.32;;;10.10;;
22697;SDS011;11516;51.612;7.510;2022-12-18T11:40:51;14.57;;;10.23;;
22697;SDS011;11516;51.612;7.510;2022-12-18T11:43:35;13.48;;;9.88;;
22697;SDS011;11516;51.612;7.510;2022-12-18T11:46:23;12.02;;;9.15;;
22697;SDS011;11516;51.612;7.510;2022-12-18T11:49:00;12.13;;;9.43;;
22697;SDS011;11516;51.612;7.510;2022-12-18T11:54:21;15.15;;;10.38;;
22697;SDS011;11516;51.612;7.510;2022-12-18T11:56:50;14.13;;;10.30;;
22697;SDS011;11516;51.612;7.510;2022-12-18T11:59:35;14.88;;;10.38;;
22697;SDS011;11516;51.612;7.510;2022-12-18T12:10:30;14.05;;;10.27;;
22697;SDS011;11516;51.612;7.510;2022-12-18T12:13:13;12.93;;;10.23;;
22697;SDS011;11516;51.612;7.510;2022-12-18T12:16:02;14.32;;;10.00;;
22697;SDS011;11516;51.612;7.510;2022-12-18T12:19:18;14.07;;;9.90;;
22697;SDS011;11516;51.612;7.510;2022-12-18T12:21:32;14.10;;;10.23;;
22697;SDS011;11516;51.612;7.510;2022-12-18T12:32:31;17.20;;;12.73;;
22697;SDS011;11516;51.612;7.510;2022-12-18T12:35:21;18.30;;;13.30;;
22697;SDS011;11516;51.612;7.510;2022-12-18T12:40:52;20.52;;;15.13;;
22697;SDS011;11516;51.612;7.510;2022-12-18T12:43:33;16.98;;;12.48;;
22697;SDS011;11516;51.612;7.510;2022-12-18T12:46:08;16.85;;;12.43;;
22697;SDS011;11516;51.612;7.510;2022-12-18T12:51:38;15.48;;;11.65;;
22697;SDS011;11516;51.612;7.510;2022-12-18T12:54:10;15.35;;;11.57;;
22697;SDS011;11516;51.612;7.510;2022-12-18T13:04:49;17.00;;;11.65;;
22697;SDS011;11516;51.612;7.510;2022-12-18T13:07:27;17.60;;;11.85;;
22697;SDS011;11516;51.612;7.510;2022-12-18T13:10:12;16.15;;;12.38;;
22697;SDS011;11516;51.612;7.510;2022-12-18T13:12:56;18.88;;;12.93;;
22697;SDS011;11516;51.612;7.510;2022-12-18T13:18:05;17.27;;;11.88;;
22697;SDS011;11516;51.612;7.510;2022-12-18T13:20:41;19.65;;;13.82;;
22697;SDS011;11516;51.612;7.510;2022-12-18T13:25:48;19.98;;;14.00;;
22697;SDS011;11516;51.612;7.510;2022-12-18T13:30:56;18.55;;;13.13;;
22697;SDS011;11516;51.612;7.510;2022-12-18T13:38:35;18.65;;;14.02;;
22697;SDS011;11516;51.612;7.510;2022-12-18T13:43:49;15.40;;;11.70;;
22697;SDS011;11516;51.612;7.510;2022-12-18T13:51:49;17.90;;;12.60;;
22697;SDS011;11516;51.612;7.510;2022-12-18T13:54:18;17.83;;;13.80;;
22697;SDS011;11516;51.612;7.510;2022-12-18T13:56:45;16.40;;;12.38;;
22697;SDS011;11516;51.612;7.510;2022-12-18T13:59:22;16.60;;;12.77;;
22697;SDS011;11516;51.612;7.510;2022-12-18T14:01:55;19.90;;;13.98;;
22697;SDS011;11516;51.612;7.510;2022-12-18T14:04:26;17.55;;;12.50;;
22697;SDS011;11516;51.612;7.510;2022-12-18T14:06:58;17.17;;;12.82;;
22697;SDS011;11516;51.612;7.510;2022-12-18T14:09:33;19.50;;;13.75;;
22697;SDS011;11516;51.612;7.510;2022-12-18T14:12:02;19.20;;;15.65;;
22697;SDS011;11516;51.612;7.510;2022-12-18T14:14:47;18.15;;;13.95;;
22697;SDS011;11516;51.612;7.510;2022-12-18T14:17:15;19.95;;;15.65;;
22697;SDS011;11516;51.612;7.510;2022-12-18T14:19:45;17.77;;;13.57;;
22697;SDS011;11516;51.612;7.510;2022-12-18T14:22:20;17.40;;;12.85;;
22697;SDS011;11516;51.612;7.510;2022-12-18T14:25:13;15.43;;;11.93;;
22697;SDS011;11516;51.612;7.510;2022-12-18T14:27:42;17.38;;;12.77;;
22697;SDS011;11516;51.612;7.510;2022-12-18T14:30:43;18.25;;;12.68;;
22697;SDS011;11516;51.612;7.510;2022-12-18T14:33:17;17.85;;;12.80;;
22697;SDS011;11516;51.612;7.510;2022-12-18T14:38:36;14.55;;;10.77;;
22697;SDS011;11516;51.612;7.510;2022-12-18T14:41:03;16.88;;;12.57;;
22697;SDS011;11516;51.612;7.510;2022-12-18T14:43:34;18.77;;;13.57;;
22697;SDS011;11516;51.612;7.510;2022-12-18T14:46:01;15.73;;;11.32;;
22697;SDS011;11516;51.612;7.510;2022-12-18T14:48:37;16.90;;;11.50;;
22697;SDS011;11516;51.612;7.510;2022-12-18T14:53:54;16.93;;;11.27;;
22697;SDS011;11516;51.612;7.510;2022-12-18T14:56:23;14.85;;;10.75;;
22697;SDS011;11516;51.612;7.510;2022-12-18T14:58:54;16.02;;;11.63;;
22697;SDS011;11516;51.612;7.510;2022-12-18T15:01:57;16.15;;;11.93;;
22697;SDS011;11516;51.612;7.510;2022-12-18T15:04:39;19.90;;;13.23;;
22697;SDS011;11516;51.612;7.510;2022-12-18T15:07:26;19.45;;;13.23;;
22697;SDS011;11516;51.612;7.510;2022-12-18T15:10:09;19.00;;;12.73;;
22697;SDS011;11516;51.612;7.510;2022-12-18T15:20:23;18.13;;;13.45;;
22697;SDS011;11516;51.612;7.510;2022-12-18T15:22:49;24.97;;;15.20;;
22697;SDS011;11516;51.612;7.510;2022-12-18T15:25:30;18.13;;;14.82;;
22697;SDS011;11516;51.612;7.510;2022-12-18T15:27:59;17.92;;;14.18;;
22697;SDS011;11516;51.612;7.510;2022-12-18T15:30:25;21.33;;;15.15;;
22697;SDS011;11516;51.612;7.510;2022-12-18T15:32:51;20.23;;;15.23;;
22697;SDS011;11516;51.612;7.510;2022-12-18T15:35:37;18.55;;;14.07;;
22697;SDS011;11516;51.612;7.510;2022-12-18T15:38:02;20.70;;;15.50;;
22697;SDS011;11516;51.612;7.510;2022-12-18T15:40:28;22.15;;;15.68;;
22697;SDS011;11516;51.612;7.510;2022-12-18T15:42:53;20.60;;;15.53;;
22697;SDS011;11516;51.612;7.510;2022-12-18T15:45:38;21.08;;;15.20;;
22697;SDS011;11516;51.612;7.510;2022-12-18T15:48:16;19.33;;;15.60;;
22697;SDS011;11516;51.612;7.510;2022-12-18T15:50:45;22.10;;;15.35;;
22697;SDS011;11516;51.612;7.510;2022-12-18T15:53:11;19.45;;;15.20;;
22697;SDS011;11516;51.612;7.510;2022-12-18T15:55:36;20.47;;;14.97;;
22697;SDS011;11516;51.612;7.510;2022-12-18T15:58:21;19.00;;;14.65;;
22697;SDS011;11516;51.612;7.510;2022-12-18T16:00:47;21.40;;;15.50;;
22697;SDS011;11516;51.612;7.510;2022-12-18T16:03:12;21.35;;;16.40;;
22697;SDS011;11516;51.612;7.510;2022-12-18T16:05:38;19.90;;;15.67;;
22697;SDS011;11516;51.612;7.510;2022-12-18T16:08:03;20.75;;;14.98;;
22697;SDS011;11516;51.612;7.510;2022-12-18T16:10:29;23.37;;;17.63;;
22697;SDS011;11516;51.612;7.510;2022-12-18T16:12:54;23.85;;;17.92;;
22697;SDS011;11516;51.612;7.510;2022-12-18T16:15:20;23.47;;;17.70;;
22697;SDS011;11516;51.612;7.510;2022-12-18T16:17:46;25.10;;;18.73;;
22697;SDS011;11516;51.612;7.510;2022-12-18T16:20:13;26.23;;;18.80;;
22697;SDS011;11516;51.612;7.510;2022-12-18T16:22:40;23.13;;;16.25;;
22697;SDS011;11516;51.612;7.510;2022-12-18T16:25:08;23.67;;;17.50;;
22697;SDS011;11516;51.612;7.510;2022-12-18T16:27:41;24.85;;;17.80;;